createdAt,value
2018-01-30T00:00:33.280Z,0.00
2018-01-30T00:01:33.327Z,0.00
2018-01-30T00:02:33.259Z,0.00
2018-01-30T00:03:33.212Z,0.00
2018-01-30T00:04:33.207Z,0.00
2018-01-30T00:05:33.171Z,0.00
2018-01-30T00:06:33.149Z,0.00
2018-01-30T00:07:33.127Z,0.00
2018-01-30T00:08:33.114Z,0.00
2018-01-30T00:09:33.108Z,0.00
2018-01-30T00:10:33.063Z,0.00
2018-01-30T00:11:33.047Z,0.00
2018-01-30T00:12:33.020Z,0.00
2018-01-30T00:13:33.005Z,0.00
2018-01-30T00:14:32.977Z,0.00
2018-01-30T00:15:32.957Z,0.00
2018-01-30T00:16:32.937Z,0.00
2018-01-30T00:17:32.916Z,0.00
2018-01-30T00:18:32.899Z,0.00
2018-01-30T00:19:32.871Z,0.00
2018-01-30T00:20:32.864Z,0.00
2018-01-30T00:21:32.834Z,0.00
2018-01-30T00:22:32.816Z,0.00
2018-01-30T00:23:32.799Z,0.00
2018-01-30T00:24:32.769Z,0.00
2018-01-30T00:25:32.749Z,0.00
2018-01-30T00:26:32.731Z,0.00
2018-01-30T00:27:32.708Z,0.00
2018-01-30T00:28:32.710Z,0.00
2018-01-30T00:29:32.716Z,0.00
2018-01-30T00:30:32.637Z,0.00
2018-01-30T00:31:32.618Z,0.00
2018-01-30T00:32:32.597Z,0.00
2018-01-30T00:33:32.574Z,0.00
2018-01-30T00:34:32.622Z,0.00
2018-01-30T00:35:32.534Z,0.00
2018-01-30T00:36:32.509Z,0.00
2018-01-30T00:37:32.493Z,0.00
2018-01-30T00:38:32.469Z,0.00
2018-01-30T00:39:32.446Z,0.00
2018-01-30T00:40:32.428Z,0.00
2018-01-30T00:41:32.403Z,0.00
2018-01-30T00:42:32.383Z,0.00
2018-01-30T00:43:32.363Z,0.00
2018-01-30T00:44:32.342Z,0.00
2018-01-30T00:45:32.323Z,0.00
2018-01-30T00:46:32.297Z,0.00
2018-01-30T00:47:32.280Z,0.00
2018-01-30T00:48:32.258Z,0.00
2018-01-30T00:49:32.236Z,0.00
2018-01-30T00:50:32.215Z,0.00
2018-01-30T00:51:32.193Z,0.00
2018-01-30T00:52:32.173Z,0.00
2018-01-30T00:53:32.154Z,0.00
2018-01-30T00:54:32.131Z,0.00
2018-01-30T00:55:32.108Z,0.00
2018-01-30T00:56:32.159Z,0.00
2018-01-30T00:57:32.064Z,0.00
2018-01-30T00:58:32.043Z,0.00
2018-01-30T00:59:32.075Z,0.00
2018-01-30T01:00:32.002Z,0.00
2018-01-30T01:01:31.981Z,0.00
2018-01-30T01:02:31.968Z,0.00
2018-01-30T01:03:31.935Z,0.00
2018-01-30T01:04:31.916Z,0.00
2018-01-30T01:05:31.895Z,0.00
2018-01-30T01:06:31.872Z,0.00
2018-01-30T01:07:31.861Z,0.00
2018-01-30T01:08:31.829Z,0.00
2018-01-30T01:09:31.810Z,0.00
2018-01-30T01:10:31.790Z,0.00
2018-01-30T01:11:31.764Z,0.00
2018-01-30T01:12:31.742Z,0.00
2018-01-30T01:13:31.723Z,0.00
2018-01-30T01:14:31.708Z,0.00
2018-01-30T01:15:31.691Z,0.00
2018-01-30T01:16:31.660Z,0.00
2018-01-30T01:17:31.637Z,0.00
2018-01-30T01:18:31.668Z,0.00
2018-01-30T01:19:31.599Z,0.00
2018-01-30T01:20:31.570Z,0.00
2018-01-30T01:21:31.567Z,0.00
2018-01-30T01:22:31.528Z,0.00
2018-01-30T01:23:31.515Z,0.00
2018-01-30T01:24:31.484Z,0.00
2018-01-30T01:25:31.461Z,0.00
2018-01-30T01:26:31.597Z,0.00
2018-01-30T01:27:31.459Z,0.00
2018-01-30T01:28:31.397Z,0.00
2018-01-30T01:29:31.453Z,0.00
2018-01-30T01:30:31.351Z,0.00
2018-01-30T01:31:31.330Z,0.00
2018-01-30T01:32:31.320Z,0.00
2018-01-30T01:33:31.287Z,0.00
2018-01-30T01:34:31.274Z,0.00
2018-01-30T01:35:31.247Z,0.00
2018-01-30T01:36:31.222Z,0.00
2018-01-30T01:37:31.203Z,0.00
2018-01-30T01:38:31.179Z,0.00
2018-01-30T01:39:31.156Z,0.00
2018-01-30T01:40:31.136Z,0.00
2018-01-30T01:41:31.112Z,0.00
2018-01-30T01:42:31.092Z,0.00
2018-01-30T01:43:31.077Z,0.00
2018-01-30T01:44:31.048Z,0.00
2018-01-30T01:45:31.025Z,0.00
2018-01-30T01:46:31.006Z,0.00
2018-01-30T01:47:30.984Z,0.00
2018-01-30T01:48:30.961Z,0.00
2018-01-30T01:49:30.938Z,0.00
2018-01-30T01:50:30.914Z,0.00
2018-01-30T01:51:30.909Z,0.00
2018-01-30T01:52:30.875Z,0.00
2018-01-30T01:53:30.854Z,0.00
2018-01-30T01:54:30.888Z,0.00
2018-01-30T01:55:30.813Z,0.00
2018-01-30T01:56:30.785Z,0.00
2018-01-30T01:57:30.764Z,0.00
2018-01-30T01:58:30.741Z,0.00
2018-01-30T01:59:30.714Z,0.00
2018-01-30T02:00:30.694Z,0.00
2018-01-30T02:01:30.699Z,0.00
2018-01-30T02:02:30.649Z,0.00
2018-01-30T02:03:30.625Z,0.00
2018-01-30T02:04:30.606Z,0.00
2018-01-30T02:05:30.594Z,0.00
2018-01-30T02:06:30.564Z,0.00
2018-01-30T02:07:30.538Z,0.00
2018-01-30T02:08:30.517Z,0.00
2018-01-30T02:09:30.500Z,0.00
2018-01-30T02:10:30.471Z,0.00
2018-01-30T02:11:30.453Z,0.00
2018-01-30T02:12:30.434Z,0.00
2018-01-30T02:13:30.407Z,0.00
2018-01-30T02:14:30.386Z,0.00
2018-01-30T02:15:30.370Z,0.00
2018-01-30T02:16:30.341Z,0.00
2018-01-30T02:17:30.313Z,0.00
2018-01-30T02:18:30.292Z,0.00
2018-01-30T02:19:30.274Z,0.00
2018-01-30T02:20:30.251Z,0.00
2018-01-30T02:21:30.336Z,0.00
2018-01-30T02:22:30.203Z,0.00
2018-01-30T02:23:30.181Z,0.00
2018-01-30T02:24:30.186Z,0.00
2018-01-30T02:25:30.144Z,0.00
2018-01-30T02:26:30.113Z,0.00
2018-01-30T02:27:30.098Z,0.00
2018-01-30T02:28:30.070Z,0.00
2018-01-30T02:29:30.052Z,0.00
2018-01-30T02:30:30.023Z,0.00
2018-01-30T02:31:30.002Z,0.00
2018-01-30T02:32:29.979Z,0.00
2018-01-30T02:33:29.958Z,0.00
2018-01-30T02:34:29.934Z,0.00
2018-01-30T02:35:29.921Z,0.00
2018-01-30T02:36:29.888Z,0.00
2018-01-30T02:37:29.876Z,0.00
2018-01-30T02:38:29.843Z,0.00
2018-01-30T02:39:29.829Z,0.00
2018-01-30T02:40:29.856Z,0.00
2018-01-30T02:41:29.779Z,0.00
2018-01-30T02:42:29.754Z,0.00
2018-01-30T02:43:29.730Z,0.00
2018-01-30T02:44:29.709Z,0.00
2018-01-30T02:45:29.689Z,0.00
2018-01-30T02:46:29.764Z,0.00
2018-01-30T02:47:29.643Z,0.00
2018-01-30T02:48:29.621Z,0.00
2018-01-30T02:49:29.600Z,0.00
2018-01-30T02:50:29.573Z,0.00
2018-01-30T02:51:29.549Z,0.00
2018-01-30T02:52:29.531Z,0.00
2018-01-30T02:53:29.507Z,0.00
2018-01-30T02:54:29.490Z,0.00
2018-01-30T02:55:29.458Z,0.00
2018-01-30T02:56:29.441Z,0.00
2018-01-30T02:57:29.465Z,0.00
2018-01-30T02:58:29.390Z,0.00
2018-01-30T02:59:29.368Z,0.00
2018-01-30T03:00:29.351Z,0.00
2018-01-30T03:01:29.326Z,0.00
2018-01-30T03:02:29.300Z,0.00
2018-01-30T03:03:29.277Z,0.00
2018-01-30T03:04:29.264Z,0.00
2018-01-30T03:05:29.237Z,0.00
2018-01-30T03:06:29.211Z,0.00
2018-01-30T03:07:29.210Z,0.00
2018-01-30T03:08:29.178Z,0.00
2018-01-30T03:09:29.145Z,0.00
2018-01-30T03:10:29.117Z,0.00
2018-01-30T03:11:29.094Z,0.00
2018-01-30T03:12:29.073Z,0.00
2018-01-30T03:13:29.049Z,0.00
2018-01-30T03:14:29.026Z,0.00
2018-01-30T03:15:29.008Z,0.00
2018-01-30T03:16:28.984Z,0.00
2018-01-30T03:17:28.955Z,0.00
2018-01-30T03:18:28.936Z,0.00
2018-01-30T03:19:28.933Z,0.00
2018-01-30T03:20:28.889Z,0.00
2018-01-30T03:21:28.866Z,0.00
2018-01-30T03:22:28.850Z,0.00
2018-01-30T03:23:28.823Z,0.00
2018-01-30T03:24:28.797Z,0.00
2018-01-30T03:25:28.775Z,0.00
2018-01-30T03:26:28.753Z,0.00
2018-01-30T03:27:28.727Z,0.00
2018-01-30T03:28:28.704Z,0.00
2018-01-30T03:29:28.682Z,0.00
2018-01-30T03:30:28.662Z,0.00
2018-01-30T03:31:28.633Z,0.00
2018-01-30T03:32:28.610Z,0.00
2018-01-30T03:33:28.593Z,0.00
2018-01-30T03:34:28.572Z,0.00
2018-01-30T03:35:28.545Z,0.00
2018-01-30T03:36:28.521Z,0.00
2018-01-30T03:37:28.496Z,0.00
2018-01-30T03:38:28.476Z,0.00
2018-01-30T03:39:28.450Z,0.00
2018-01-30T03:40:28.436Z,0.00
2018-01-30T03:41:28.426Z,0.00
2018-01-30T03:42:28.382Z,0.00
2018-01-30T03:43:28.360Z,0.00
2018-01-30T03:44:28.360Z,0.00
2018-01-30T03:45:28.314Z,0.00
2018-01-30T03:46:28.298Z,0.00
2018-01-30T03:47:28.272Z,0.00
2018-01-30T03:48:28.243Z,0.00
2018-01-30T03:49:28.219Z,0.00
2018-01-30T03:50:28.195Z,0.00
2018-01-30T03:51:28.172Z,0.00
2018-01-30T03:52:28.242Z,0.00
2018-01-30T03:53:28.138Z,0.00
2018-01-30T03:54:28.101Z,0.00
2018-01-30T03:55:28.181Z,0.00
2018-01-30T03:56:28.057Z,0.00
2018-01-30T03:57:28.030Z,0.00
2018-01-30T03:58:28.010Z,0.00
2018-01-30T03:59:27.987Z,0.00
2018-01-30T04:00:27.963Z,0.00
2018-01-30T04:01:27.939Z,0.00
2018-01-30T04:02:27.918Z,0.00
2018-01-30T04:03:27.896Z,0.00
2018-01-30T04:04:27.870Z,0.00
2018-01-30T04:05:27.847Z,0.00
2018-01-30T04:06:27.822Z,0.00
2018-01-30T04:07:27.799Z,0.00
2018-01-30T04:08:27.777Z,0.00
2018-01-30T04:09:27.753Z,0.00
2018-01-30T04:10:27.729Z,0.00
2018-01-30T04:11:27.707Z,0.00
2018-01-30T04:12:27.686Z,0.00
2018-01-30T04:13:27.658Z,0.00
2018-01-30T04:14:27.636Z,0.00
2018-01-30T04:15:27.612Z,0.00
2018-01-30T04:16:27.588Z,0.00
2018-01-30T04:17:27.658Z,0.00
2018-01-30T04:18:27.545Z,0.00
2018-01-30T04:19:27.517Z,0.00
2018-01-30T04:20:27.548Z,0.00
2018-01-30T04:21:27.476Z,0.00
2018-01-30T04:22:27.449Z,0.00
2018-01-30T04:23:27.431Z,0.00
2018-01-30T04:24:27.407Z,0.00
2018-01-30T04:25:27.381Z,0.00
2018-01-30T04:26:27.355Z,0.00
2018-01-30T04:27:27.336Z,0.00
2018-01-30T04:28:27.318Z,0.00
2018-01-30T04:29:27.285Z,0.00
2018-01-30T04:30:27.264Z,0.00
2018-01-30T04:31:27.239Z,0.00
2018-01-30T04:32:27.218Z,0.00
2018-01-30T04:33:27.195Z,0.00
2018-01-30T04:34:27.176Z,0.00
2018-01-30T04:35:27.147Z,0.00
2018-01-30T04:36:27.124Z,0.00
2018-01-30T04:37:27.099Z,0.00
2018-01-30T04:38:27.074Z,0.00
2018-01-30T04:39:27.053Z,0.00
2018-01-30T04:40:27.028Z,0.00
2018-01-30T04:41:27.003Z,0.00
2018-01-30T04:42:26.983Z,0.00
2018-01-30T04:43:26.958Z,0.00
2018-01-30T04:44:26.936Z,0.00
2018-01-30T04:45:26.912Z,0.00
2018-01-30T04:46:26.888Z,0.00
2018-01-30T04:47:26.873Z,0.00
2018-01-30T04:48:26.842Z,0.00
2018-01-30T04:49:26.817Z,0.00
2018-01-30T04:50:26.816Z,0.00
2018-01-30T04:51:26.775Z,0.00
2018-01-30T04:52:26.752Z,0.00
2018-01-30T04:53:26.825Z,0.00
2018-01-30T04:54:26.702Z,0.00
2018-01-30T04:55:26.679Z,0.00
2018-01-30T04:56:26.662Z,0.00
2018-01-30T04:57:26.628Z,0.00
2018-01-30T04:58:26.604Z,0.00
2018-01-30T04:59:26.599Z,0.00
2018-01-30T05:00:26.561Z,0.00
2018-01-30T05:01:26.535Z,0.00
2018-01-30T05:02:26.528Z,0.00
2018-01-30T05:03:26.489Z,0.00
2018-01-30T05:04:26.465Z,0.00
2018-01-30T05:05:26.440Z,0.00
2018-01-30T05:06:26.419Z,0.00
2018-01-30T05:07:26.393Z,0.00
2018-01-30T05:08:26.378Z,0.00
2018-01-30T05:09:26.349Z,0.00
2018-01-30T05:10:26.328Z,0.00
2018-01-30T05:11:26.305Z,0.00
2018-01-30T05:12:26.280Z,0.00
2018-01-30T05:13:26.252Z,0.00
2018-01-30T05:14:26.228Z,0.00
2018-01-30T05:15:26.282Z,0.00
2018-01-30T05:16:26.188Z,0.00
2018-01-30T05:17:26.158Z,0.00
2018-01-30T05:18:26.189Z,0.00
2018-01-30T05:19:26.113Z,0.00
2018-01-30T05:20:26.113Z,0.00
2018-01-30T05:21:26.068Z,0.00
2018-01-30T05:22:26.043Z,0.00
2018-01-30T05:23:26.024Z,0.00
2018-01-30T05:24:25.998Z,0.00
2018-01-30T05:25:25.969Z,0.00
2018-01-30T05:26:25.967Z,0.00
2018-01-30T05:27:25.940Z,0.00
2018-01-30T05:28:25.903Z,0.00
2018-01-30T05:29:25.880Z,0.00
2018-01-30T05:30:25.857Z,0.00
2018-01-30T05:31:25.836Z,0.00
2018-01-30T05:32:25.805Z,0.00
2018-01-30T05:33:25.785Z,0.00
2018-01-30T05:34:25.762Z,0.00
2018-01-30T05:35:25.754Z,0.00
2018-01-30T05:36:25.717Z,0.00
2018-01-30T05:37:25.689Z,0.00
2018-01-30T05:38:25.665Z,0.00
2018-01-30T05:39:25.649Z,0.00
2018-01-30T05:40:25.621Z,0.00
2018-01-30T05:41:25.605Z,0.00
2018-01-30T05:42:25.575Z,0.00
2018-01-30T05:43:25.550Z,0.00
2018-01-30T05:44:25.539Z,0.00
2018-01-30T05:45:25.506Z,0.00
2018-01-30T05:46:25.502Z,0.00
2018-01-30T05:47:25.456Z,0.00
2018-01-30T05:48:25.446Z,0.00
2018-01-30T05:49:25.415Z,0.00
2018-01-30T05:50:25.387Z,0.00
2018-01-30T05:51:25.515Z,0.00
2018-01-30T05:52:25.338Z,0.00
2018-01-30T05:53:25.316Z,0.00
2018-01-30T05:54:25.295Z,0.00
2018-01-30T05:55:25.269Z,0.00
2018-01-30T05:56:25.246Z,0.00
2018-01-30T05:57:25.282Z,0.00
2018-01-30T05:58:25.199Z,0.00
2018-01-30T05:59:25.175Z,0.00
2018-01-30T06:00:25.153Z,0.00
2018-01-30T06:01:25.129Z,0.00
2018-01-30T06:02:25.107Z,0.00
2018-01-30T06:03:25.084Z,0.00
2018-01-30T06:04:25.063Z,0.00
2018-01-30T06:05:25.035Z,0.00
2018-01-30T06:06:25.013Z,0.00
2018-01-30T06:07:24.997Z,0.00
2018-01-30T06:08:24.968Z,0.00
2018-01-30T06:09:24.956Z,0.00
2018-01-30T06:10:24.920Z,0.00
2018-01-30T06:11:24.896Z,0.00
2018-01-30T06:12:24.882Z,0.00
2018-01-30T06:13:24.850Z,0.00
2018-01-30T06:14:24.825Z,0.00
2018-01-30T06:15:24.803Z,0.00
2018-01-30T06:16:24.785Z,0.00
2018-01-30T06:17:24.759Z,0.00
2018-01-30T06:18:24.734Z,0.00
2018-01-30T06:19:24.737Z,0.00
2018-01-30T06:20:24.684Z,0.00
2018-01-30T06:21:24.681Z,0.00
2018-01-30T06:22:24.640Z,0.00
2018-01-30T06:23:24.622Z,0.00
2018-01-30T06:24:24.751Z,0.00
2018-01-30T06:25:24.569Z,0.00
2018-01-30T06:26:24.545Z,0.00
2018-01-30T06:27:24.529Z,0.00
2018-01-30T06:28:24.499Z,0.00
2018-01-30T06:29:24.473Z,0.00
2018-01-30T06:30:24.451Z,0.00
2018-01-30T06:31:24.429Z,0.00
2018-01-30T06:32:24.409Z,0.00
2018-01-30T06:33:24.381Z,0.00
2018-01-30T06:34:24.368Z,0.00
2018-01-30T06:35:24.339Z,0.00
2018-01-30T06:36:24.314Z,0.00
2018-01-30T06:37:24.288Z,0.00
2018-01-30T06:38:24.272Z,0.00
2018-01-30T06:39:24.242Z,0.00
2018-01-30T06:40:24.220Z,0.00
2018-01-30T06:41:24.199Z,0.00
2018-01-30T06:42:24.170Z,0.00
2018-01-30T06:43:24.148Z,0.00
2018-01-30T06:44:24.140Z,0.00
2018-01-30T06:45:24.102Z,0.00
2018-01-30T06:46:24.169Z,0.00
2018-01-30T06:47:24.057Z,0.00
2018-01-30T06:48:24.038Z,0.00
2018-01-30T06:49:24.060Z,0.00
2018-01-30T06:50:23.985Z,0.00
2018-01-30T06:51:23.968Z,0.00
2018-01-30T06:52:23.938Z,0.00
2018-01-30T06:53:23.923Z,0.00
2018-01-30T06:54:23.898Z,0.00
2018-01-30T06:55:23.868Z,0.00
2018-01-30T06:56:23.845Z,0.00
2018-01-30T06:57:23.820Z,0.00
2018-01-30T06:58:23.796Z,0.00
2018-01-30T06:59:23.776Z,0.00
2018-01-30T07:00:23.769Z,5.63
2018-01-30T07:01:23.725Z,5.63
2018-01-30T07:02:23.705Z,5.63
2018-01-30T07:03:23.681Z,5.63
2018-01-30T07:04:23.657Z,5.63
2018-01-30T07:05:23.639Z,5.63
2018-01-30T07:06:23.611Z,5.63
2018-01-30T07:07:23.588Z,11.25
2018-01-30T07:08:23.564Z,11.25
2018-01-30T07:09:23.540Z,11.25
2018-01-30T07:10:23.516Z,11.25
2018-01-30T07:11:23.500Z,11.25
2018-01-30T07:12:23.468Z,16.88
2018-01-30T07:13:23.451Z,16.88
2018-01-30T07:14:23.430Z,16.88
2018-01-30T07:15:23.398Z,16.88
2018-01-30T07:16:23.374Z,22.50
2018-01-30T07:17:23.353Z,22.50
2018-01-30T07:18:23.326Z,22.50
2018-01-30T07:19:23.427Z,28.13
2018-01-30T07:20:23.285Z,28.13
2018-01-30T07:21:23.254Z,28.13
2018-01-30T07:22:23.241Z,28.13
2018-01-30T07:23:23.212Z,33.75
2018-01-30T07:24:23.191Z,33.75
2018-01-30T07:25:23.169Z,39.38
2018-01-30T07:26:23.153Z,39.38
2018-01-30T07:27:23.113Z,39.38
2018-01-30T07:28:23.092Z,45.00
2018-01-30T07:29:23.066Z,45.00
2018-01-30T07:30:23.048Z,45.00
2018-01-30T07:31:23.022Z,50.63
2018-01-30T07:32:22.996Z,50.63
2018-01-30T07:33:22.973Z,56.25
2018-01-30T07:34:22.951Z,56.25
2018-01-30T07:35:22.925Z,56.25
2018-01-30T07:36:22.907Z,61.88
2018-01-30T07:37:22.880Z,61.88
2018-01-30T07:38:22.855Z,67.50
2018-01-30T07:39:22.836Z,67.50
2018-01-30T07:40:22.809Z,73.13
2018-01-30T07:41:22.784Z,73.13
2018-01-30T07:42:22.762Z,78.75
2018-01-30T07:43:22.751Z,78.75
2018-01-30T07:44:22.733Z,78.75
2018-01-30T07:45:22.700Z,84.38
2018-01-30T07:46:22.679Z,84.38
2018-01-30T07:47:22.719Z,90.00
2018-01-30T07:48:22.622Z,84.38
2018-01-30T07:49:22.600Z,90.00
2018-01-30T07:50:22.575Z,90.00
2018-01-30T07:51:22.551Z,90.00
2018-01-30T07:52:22.529Z,95.63
2018-01-30T07:53:22.504Z,95.63
2018-01-30T07:54:22.481Z,95.63
2018-01-30T07:55:22.477Z,90.00
2018-01-30T07:56:22.446Z,95.63
2018-01-30T07:57:22.417Z,101.25
2018-01-30T07:58:22.452Z,101.25
2018-01-30T07:59:22.368Z,101.25
2018-01-30T08:00:22.343Z,101.25
2018-01-30T08:01:22.321Z,95.63
2018-01-30T08:02:22.298Z,90.00
2018-01-30T08:03:22.272Z,90.00
2018-01-30T08:04:22.252Z,95.63
2018-01-30T08:05:22.227Z,78.75
2018-01-30T08:06:22.209Z,78.75
2018-01-30T08:07:22.183Z,73.13
2018-01-30T08:08:22.158Z,73.13
2018-01-30T08:09:22.137Z,73.13
2018-01-30T08:10:22.112Z,67.50
2018-01-30T08:11:22.090Z,73.13
2018-01-30T08:12:22.070Z,90.00
2018-01-30T08:13:22.041Z,90.00
2018-01-30T08:14:22.019Z,84.38
2018-01-30T08:15:22.002Z,90.00
2018-01-30T08:16:21.975Z,95.63
2018-01-30T08:17:22.082Z,106.88
2018-01-30T08:18:21.927Z,118.13
2018-01-30T08:19:21.931Z,101.25
2018-01-30T08:20:21.916Z,106.88
2018-01-30T08:21:21.859Z,101.25
2018-01-30T08:22:21.833Z,90.00
2018-01-30T08:23:21.843Z,84.38
2018-01-30T08:24:21.797Z,78.75
2018-01-30T08:25:21.769Z,84.38
2018-01-30T08:26:21.749Z,90.00
2018-01-30T08:27:21.724Z,95.63
2018-01-30T08:28:21.704Z,95.63
2018-01-30T08:29:21.680Z,95.63
2018-01-30T08:30:21.662Z,101.25
2018-01-30T08:31:21.644Z,101.25
2018-01-30T08:32:21.613Z,101.25
2018-01-30T08:33:21.602Z,101.25
2018-01-30T08:34:21.566Z,112.50
2018-01-30T08:35:21.542Z,118.13
2018-01-30T08:36:21.522Z,106.88
2018-01-30T08:37:21.504Z,106.88
2018-01-30T08:38:21.481Z,112.50
2018-01-30T08:39:21.454Z,112.50
2018-01-30T08:40:21.442Z,112.50
2018-01-30T08:41:21.421Z,106.88
2018-01-30T08:42:21.398Z,101.25
2018-01-30T08:43:21.366Z,118.13
2018-01-30T08:44:21.371Z,140.63
2018-01-30T08:45:21.322Z,163.13
2018-01-30T08:46:21.297Z,180.00
2018-01-30T08:47:21.330Z,286.88
2018-01-30T08:48:21.251Z,365.63
2018-01-30T08:49:21.232Z,236.25
2018-01-30T08:50:21.213Z,292.50
2018-01-30T08:51:21.189Z,365.63
2018-01-30T08:52:21.172Z,427.50
2018-01-30T08:53:21.152Z,376.88
2018-01-30T08:54:21.123Z,253.13
2018-01-30T08:55:21.102Z,315.00
2018-01-30T08:56:21.134Z,264.38
2018-01-30T08:57:21.053Z,298.13
2018-01-30T08:58:21.053Z,264.38
2018-01-30T08:59:21.018Z,348.75
2018-01-30T09:00:20.991Z,337.50
2018-01-30T09:01:20.968Z,309.38
2018-01-30T09:02:20.945Z,371.25
2018-01-30T09:03:20.925Z,388.13
2018-01-30T09:04:20.902Z,450.00
2018-01-30T09:05:20.897Z,343.13
2018-01-30T09:06:20.862Z,393.75
2018-01-30T09:07:20.839Z,354.38
2018-01-30T09:08:20.818Z,348.75
2018-01-30T09:09:20.799Z,292.50
2018-01-30T09:10:20.779Z,298.13
2018-01-30T09:11:20.758Z,270.00
2018-01-30T09:12:20.796Z,247.50
2018-01-30T09:13:20.710Z,241.88
2018-01-30T09:14:20.688Z,258.75
2018-01-30T09:15:20.726Z,258.75
2018-01-30T09:16:20.648Z,230.63
2018-01-30T09:17:20.629Z,258.75
2018-01-30T09:18:20.622Z,264.38
2018-01-30T09:19:20.607Z,281.25
2018-01-30T09:20:20.562Z,416.25
2018-01-30T09:21:20.543Z,506.25
2018-01-30T09:22:20.520Z,438.75
2018-01-30T09:23:20.500Z,405.00
2018-01-30T09:24:20.478Z,506.25
2018-01-30T09:25:20.466Z,517.50
2018-01-30T09:26:20.449Z,416.25
2018-01-30T09:27:20.424Z,388.13
2018-01-30T09:28:20.397Z,405.00
2018-01-30T09:29:20.384Z,461.25
2018-01-30T09:30:20.351Z,416.25
2018-01-30T09:31:20.336Z,393.75
2018-01-30T09:32:20.311Z,382.50
2018-01-30T09:33:20.289Z,421.88
2018-01-30T09:34:20.269Z,382.50
2018-01-30T09:35:20.257Z,393.75
2018-01-30T09:36:20.230Z,388.13
2018-01-30T09:37:20.222Z,405.00
2018-01-30T09:38:20.206Z,348.75
2018-01-30T09:39:20.165Z,303.75
2018-01-30T09:40:20.158Z,517.50
2018-01-30T09:41:20.122Z,466.88
2018-01-30T09:42:20.104Z,489.38
2018-01-30T09:43:20.085Z,382.50
2018-01-30T09:44:20.063Z,298.13
2018-01-30T09:45:20.118Z,320.63
2018-01-30T09:46:20.024Z,365.63
2018-01-30T09:47:20.012Z,461.25
2018-01-30T09:48:19.991Z,455.63
2018-01-30T09:49:20.008Z,360.00
2018-01-30T09:50:19.939Z,343.13
2018-01-30T09:51:19.918Z,466.88
2018-01-30T09:52:19.899Z,433.13
2018-01-30T09:53:19.885Z,320.63
2018-01-30T09:54:19.855Z,303.75
2018-01-30T09:55:19.835Z,270.00
2018-01-30T09:56:19.815Z,365.63
2018-01-30T09:57:19.796Z,326.25
2018-01-30T09:58:19.788Z,292.50
2018-01-30T09:59:19.762Z,376.88
2018-01-30T10:00:19.733Z,337.50
2018-01-30T10:01:19.714Z,399.38
2018-01-30T10:02:19.705Z,500.63
2018-01-30T10:03:19.677Z,438.75
2018-01-30T10:04:19.657Z,388.13
2018-01-30T10:05:19.632Z,405.00
2018-01-30T10:06:19.616Z,545.63
2018-01-30T10:07:19.668Z,613.13
2018-01-30T10:08:19.570Z,579.38
2018-01-30T10:09:19.552Z,444.38
2018-01-30T10:10:19.588Z,500.63
2018-01-30T10:11:19.511Z,427.50
2018-01-30T10:12:19.493Z,472.50
2018-01-30T10:13:19.471Z,427.50
2018-01-30T10:14:19.450Z,421.88
2018-01-30T10:15:19.431Z,410.63
2018-01-30T10:16:19.410Z,573.75
2018-01-30T10:17:19.391Z,748.13
2018-01-30T10:18:19.473Z,725.63
2018-01-30T10:19:19.350Z,742.50
2018-01-30T10:20:19.331Z,1057.50
2018-01-30T10:21:19.311Z,1080.00
2018-01-30T10:22:19.298Z,1603.13
2018-01-30T10:23:19.270Z,500.63
2018-01-30T10:24:19.257Z,658.13
2018-01-30T10:25:19.238Z,556.88
2018-01-30T10:26:19.217Z,708.75
2018-01-30T10:27:19.191Z,810.00
2018-01-30T10:28:19.172Z,883.13
2018-01-30T10:29:19.159Z,590.63
2018-01-30T10:30:19.132Z,399.38
2018-01-30T10:31:19.118Z,388.13
2018-01-30T10:32:19.106Z,495.00
2018-01-30T10:33:19.078Z,517.50
2018-01-30T10:34:19.060Z,556.88
2018-01-30T10:35:19.038Z,1147.50
2018-01-30T10:36:19.022Z,652.50
2018-01-30T10:37:19.048Z,663.75
2018-01-30T10:38:18.980Z,534.38
2018-01-30T10:39:18.962Z,618.75
2018-01-30T10:40:19.008Z,455.63
2018-01-30T10:41:18.928Z,337.50
2018-01-30T10:42:18.907Z,399.38
2018-01-30T10:43:18.898Z,489.38
2018-01-30T10:44:18.869Z,354.38
2018-01-30T10:45:18.847Z,309.38
2018-01-30T10:46:18.830Z,371.25
2018-01-30T10:47:18.813Z,416.25
2018-01-30T10:48:18.801Z,416.25
2018-01-30T10:49:18.852Z,427.50
2018-01-30T10:50:18.756Z,354.38
2018-01-30T10:51:18.743Z,337.50
2018-01-30T10:52:18.717Z,371.25
2018-01-30T10:53:18.696Z,320.63
2018-01-30T10:54:18.681Z,337.50
2018-01-30T10:55:18.667Z,309.38
2018-01-30T10:56:18.752Z,258.75
2018-01-30T10:57:18.617Z,247.50
2018-01-30T10:58:18.606Z,208.13
2018-01-30T10:59:18.668Z,320.63
2018-01-30T11:00:18.559Z,483.75
2018-01-30T11:01:18.539Z,416.25
2018-01-30T11:02:18.524Z,354.38
2018-01-30T11:03:18.520Z,331.88
2018-01-30T11:04:18.484Z,343.13
2018-01-30T11:05:18.465Z,281.25
2018-01-30T11:06:18.450Z,382.50
2018-01-30T11:07:18.584Z,461.25
2018-01-30T11:08:18.404Z,590.63
2018-01-30T11:09:18.389Z,545.63
2018-01-30T11:10:18.366Z,444.38
2018-01-30T11:11:18.346Z,438.75
2018-01-30T11:12:18.324Z,438.75
2018-01-30T11:13:18.306Z,393.75
2018-01-30T11:14:18.285Z,461.25
2018-01-30T11:15:18.266Z,343.13
2018-01-30T11:16:18.248Z,331.88
2018-01-30T11:17:18.227Z,354.38
2018-01-30T11:18:18.213Z,376.88
2018-01-30T11:19:18.192Z,292.50
2018-01-30T11:20:18.175Z,343.13
2018-01-30T11:21:18.155Z,517.50
2018-01-30T11:22:18.133Z,433.13
2018-01-30T11:23:18.112Z,371.25
2018-01-30T11:24:18.094Z,337.50
2018-01-30T11:25:18.075Z,275.63
2018-01-30T11:26:18.076Z,320.63
2018-01-30T11:27:18.041Z,326.25
2018-01-30T11:28:18.016Z,298.13
2018-01-30T11:29:18.046Z,382.50
2018-01-30T11:30:17.984Z,326.25
2018-01-30T11:31:17.961Z,393.75
2018-01-30T11:32:17.940Z,444.38
2018-01-30T11:33:17.920Z,399.38
2018-01-30T11:34:17.911Z,281.25
2018-01-30T11:35:17.881Z,258.75
2018-01-30T11:36:17.863Z,236.25
2018-01-30T11:37:17.841Z,320.63
2018-01-30T11:38:17.850Z,348.75
2018-01-30T11:39:17.802Z,331.88
2018-01-30T11:40:17.784Z,298.13
2018-01-30T11:41:17.811Z,275.63
2018-01-30T11:42:17.742Z,343.13
2018-01-30T11:43:17.725Z,331.88
2018-01-30T11:44:17.709Z,343.13
2018-01-30T11:45:17.696Z,343.13
2018-01-30T11:46:17.696Z,405.00
2018-01-30T11:47:17.648Z,388.13
2018-01-30T11:48:17.716Z,393.75
2018-01-30T11:49:17.609Z,427.50
2018-01-30T11:50:17.596Z,410.63
2018-01-30T11:51:17.603Z,416.25
2018-01-30T11:52:17.560Z,416.25
2018-01-30T11:53:17.565Z,427.50
2018-01-30T11:54:17.520Z,376.88
2018-01-30T11:55:17.490Z,399.38
2018-01-30T11:56:17.485Z,348.75
2018-01-30T11:57:17.450Z,354.38
2018-01-30T11:58:17.437Z,303.75
2018-01-30T11:59:17.425Z,286.88
2018-01-30T12:00:17.404Z,326.25
2018-01-30T12:01:17.373Z,309.38
2018-01-30T12:02:17.351Z,292.50
2018-01-30T12:03:17.335Z,331.88
2018-01-30T12:04:17.324Z,393.75
2018-01-30T12:05:17.292Z,326.25
2018-01-30T12:06:17.278Z,303.75
2018-01-30T12:07:17.258Z,292.50
2018-01-30T12:08:17.238Z,326.25
2018-01-30T12:09:17.217Z,421.88
2018-01-30T12:10:17.196Z,348.75
2018-01-30T12:11:17.180Z,326.25
2018-01-30T12:12:17.160Z,376.88
2018-01-30T12:13:17.143Z,399.38
2018-01-30T12:14:17.114Z,444.38
2018-01-30T12:15:17.098Z,461.25
2018-01-30T12:16:17.076Z,444.38
2018-01-30T12:17:17.056Z,371.25
2018-01-30T12:18:17.091Z,354.38
2018-01-30T12:19:17.027Z,360.00
2018-01-30T12:20:16.999Z,360.00
2018-01-30T12:21:17.077Z,331.88
2018-01-30T12:22:16.960Z,303.75
2018-01-30T12:23:16.938Z,337.50
2018-01-30T12:24:16.920Z,360.00
2018-01-30T12:25:16.908Z,354.38
2018-01-30T12:26:16.881Z,382.50
2018-01-30T12:27:16.868Z,365.63
2018-01-30T12:28:16.840Z,331.88
2018-01-30T12:29:16.832Z,337.50
2018-01-30T12:30:16.799Z,382.50
2018-01-30T12:31:16.783Z,354.38
2018-01-30T12:32:16.765Z,410.63
2018-01-30T12:33:16.761Z,382.50
2018-01-30T12:34:16.728Z,410.63
2018-01-30T12:35:16.706Z,399.38
2018-01-30T12:36:16.739Z,376.88
2018-01-30T12:37:16.712Z,388.13
2018-01-30T12:38:16.643Z,365.63
2018-01-30T12:39:16.622Z,365.63
2018-01-30T12:40:16.640Z,343.13
2018-01-30T12:41:16.587Z,303.75
2018-01-30T12:42:16.565Z,337.50
2018-01-30T12:43:16.563Z,365.63
2018-01-30T12:44:16.524Z,331.88
2018-01-30T12:45:16.506Z,309.38
2018-01-30T12:46:16.487Z,315.00
2018-01-30T12:47:16.473Z,309.38
2018-01-30T12:48:16.472Z,309.38
2018-01-30T12:49:16.426Z,320.63
2018-01-30T12:50:16.406Z,348.75
2018-01-30T12:51:16.395Z,348.75
2018-01-30T12:52:16.391Z,354.38
2018-01-30T12:53:16.346Z,343.13
2018-01-30T12:54:16.335Z,331.88
2018-01-30T12:55:16.311Z,331.88
2018-01-30T12:56:16.290Z,337.50
2018-01-30T12:57:16.270Z,343.13